NCAR-RAP Real-Time Weather Data

Output produced by METARs form (23 February 2020  02:08 UTC)
found at http://weather.rap.ucar.edu/surface/
 
KBRO 230153Z 10003KT 10SM CLR 17/12 A3021 RMK AO2 SLP229 T01670122
KBRO 230053Z 11007KT 10SM BKN046 18/12 A3020 RMK AO2 SLP226 T01830122
KBRO 222353Z 12011KT 10SM OVC045 19/12 A3021 RMK AO2 SLP229 T01890122 10206 20189 56015
KBRO 222253Z 12013KT 10SM SCT031 OVC047 19/12 A3022 RMK AO2 SLP230 T01940117
KBRO 222153Z 10010KT 10SM BKN032 OVC042 19/12 A3023 RMK AO2 SLP234 T01940117
KBRO 222053Z 10011KT 10SM OVC035 19/11 A3026 RMK AO2 SLP244 T01890111 56031
KBRO 221953Z 10009KT 10SM OVC036 19/11 A3029 RMK AO2 SLP254 T01890106
KBRO 221853Z 08012G17KT 10SM SCT037 OVC049 20/10 A3031 RMK AO2 SLP263 T02000100
KBRO 221753Z 08012KT 10SM OVC047 19/10 A3035 RMK AO2 SLP275 T01940100 10200 20089 58016
KBRO 221653Z 06011KT 10SM OVC044 19/09 A3037 RMK AO2 SLP283 T01890094
KBRO 221553Z 03006KT 10SM OVC045 17/11 A3038 RMK AO2 SLP287 T01670106
KBRO 221453Z 36003KT 10SM OVC047 14/09 A3040 RMK AO2 SLP291 T01390089 53010
KBRO 221353Z 01004KT 10SM CLR 12/08 A3038 RMK AO2 SLP285 T01170078
KBRO 221253Z 01006KT 10SM FEW047 09/07 A3038 RMK AO2 SLP286 T00940067
KBRO 221153Z 36004KT 10SM SCT048 09/06 A3037 RMK AO2 SLP282 T00940061 10094 20083 56010
KBRO 221053Z AUTO 35004KT 10SM BKN047 09/06 A3038 RMK AO2 SLP286 T00890056
KBRO 220953Z AUTO 36004KT 10SM CLR 08/05 A3038 RMK AO2 SLP286 T00830050
KBRO 220853Z AUTO 35004KT 10SM CLR 08/05 A3040 RMK AO2 SLP292 T00830050 56026
KBRO 220753Z AUTO 35004KT 10SM CLR 09/04 A3042 RMK AO2 SLP301 T00890044
KBRO 220653Z AUTO 36004KT 10SM CLR 09/04 A3044 RMK AO2 SLP308 T00940044
KBRO 220553Z AUTO 36005KT 10SM CLR 09/04 A3047 RMK AO2 SLP318 T00940044 10122 20094 401330089 58015
KBRO 220453Z 36007KT 10SM CLR 10/04 A3050 RMK AO2 SLP327 T01000044
KBRO 220353Z 35006KT 10SM CLR 10/04 A3052 RMK AO2 SLP333 T01000044
KBRO 220253Z 35006KT 10SM CLR 09/04 A3052 RMK AO2 SLP333 T00940044 51005
KBRO 220153Z 35006KT 10SM CLR 10/04 A3052 RMK AO2 SLP332 T01000039
KBRO 220053Z 36006KT 10SM CLR 11/04 A3051 RMK AO2 SLP330 T01060044
KBRO 212353Z 36009KT 10SM SCT042 12/04 A3050 RMK AO2 SLP328 T01220044 10133 20111 55005
KBRO 212253Z 36011KT 10SM BKN030 OVC043 13/05 A3050 RMK AO2 SLP328 T01280050
KBRO 212240Z 35011KT 10SM OVC030 13/05 A3051 RMK AO2 T01280050
KBRO 212153Z 36011G19KT 10SM OVC028 12/05 A3052 RMK AO2 SLP332 T01220050
KBRO 212053Z 35011KT 10SM OVC027 13/06 A3052 RMK AO2 SLP334 T01280056 58027
KBRO 211953Z 36015G21KT 10SM OVC026 13/05 A3055 RMK AO2 SLP342 T01280050
KBRO 211853Z 36011G18KT 10SM OVC027 12/06 A3058 RMK AO2 SLP354 T01220056
KBRO 211753Z 34014G24KT 10SM OVC029 11/05 A3060 RMK AO2 SLP361 T01110050 10111 20089 50005
KBRO 211653Z 34013G21KT 10SM OVC028 11/04 A3062 RMK AO2 SLP366 T01060044
KBRO 211553Z 33013G20KT 10SM OVC027 09/04 A3061 RMK AO2 SLP363 T00940039
KBRO 211453Z 34014G24KT 10SM OVC027 09/04 A3059 RMK AO2 SLP356 T00890039 51019
KBRO 211353Z 34013G21KT 10SM OVC028 09/04 A3057 RMK AO2 SLP350 T00890039
KBRO 211253Z 33012KT 10SM OVC026 09/05 A3055 RMK AO2 SLP344 T00890050
KBRO 211153Z 34012G20KT 10SM OVC026 09/06 A3053 RMK AO2 SLP337 60002 70004 T00940061 10094 20089 53006
KBRO 211115Z AUTO 34013G22KT 10SM BKN028 OVC042 09/07 A3052 RMK AO2 T00890067
KBRO 211053Z AUTO 33013G20KT 10SM FEW008 SCT027 OVC044 09/07 A3052 RMK AO2 RAE28 SLP333 P0000 T00890072
KBRO 211040Z AUTO 33011G23KT 10SM SCT008 SCT012 OVC042 09/07 A3052 RMK AO2 RAE28 P0000 T00890072
KBRO 210953Z AUTO 33011G20KT 8SM -RA OVC007 09/08 A3051 RMK AO2 CIG 005V009 SLP330 P0000 T00890078
KBRO 210853Z AUTO 33014G21KT 9SM -RA OVC007 09/08 A3051 RMK AO2 CIG 004V010 SLP331 P0001 60002 T00940078 50002
KBRO 210753Z AUTO 33014G23KT 10SM -RA OVC007 09/08 A3052 RMK AO2 RAB53 CIG 006V011 SLP332 P0000 T00940078
KBRO 210653Z AUTO 33014G21KT 10SM OVC007 09/08 A3051 RMK AO2 RAE51 CIG 006V011 SLP331 P0001 T00940078
KBRO 210553Z AUTO 32014G22KT 10SM -RA OVC007 09/08 A3051 RMK AO2 RAB48 CIG 005V010 SLP329 P0000 60001 T00940083 10106 20094 401560094 53010
KBRO 210506Z 32015G19KT 10SM OVC007 09/08 A3050 RMK AO2 CIG 006V010 T00940083
KBRO 210453Z 32013G20KT 10SM OVC008 09/08 A3050 RMK AO2 CIG 006V010 SLP325 T00940078
KBRO 210414Z 33011G24KT 10SM BKN008 OVC017 09/08 A3048 RMK AO2 T00940078
KBRO 210353Z 33013G22KT 10SM BKN011 OVC018 09/08 A3048 RMK AO2 SLP319 T00940078
KBRO 210342Z 33015G21KT 10SM BKN011 OVC018 09/08 A3048 RMK AO2 T00940078
KBRO 210253Z 33015G24KT 10SM OVC008 09/08 A3045 RMK AO2 RAE17 CIG 007V014 SLP311 P0000 60001 T00940078 53040
KBRO 210235Z 33015G24KT 10SM BKN010 OVC017 10/08 A3044 RMK AO2 RAE17 CIG 007V014 P0000 T01000078